createdAt,value
2023-03-15T00:04:51.718Z,60.90
2023-03-15T00:09:56.480Z,61.40
2023-03-15T00:15:01.717Z,60.70
2023-03-15T00:20:06.977Z,60.50
2023-03-15T00:25:11.018Z,61.10
2023-03-15T00:30:15.552Z,62.20
2023-03-15T00:35:20.121Z,61.80
2023-03-15T00:40:25.053Z,61.80
2023-03-15T00:45:29.292Z,61.50
2023-03-15T00:50:33.336Z,61.60
2023-03-15T00:55:37.779Z,61.60
2023-03-15T01:00:41.816Z,60.50
2023-03-15T01:05:47.174Z,60.40
2023-03-15T01:10:51.198Z,60.20
2023-03-15T01:15:55.358Z,60.00
2023-03-15T01:21:00.236Z,59.70
2023-03-15T01:26:06.917Z,60.10
2023-03-15T01:31:31.041Z,59.40
2023-03-15T01:36:35.320Z,59.10
2023-03-15T01:41:39.756Z,59.00
2023-03-15T01:46:44.374Z,58.90
2023-03-15T01:52:06.958Z,59.00
2023-03-15T01:57:42.005Z,58.90
2023-03-15T02:02:52.476Z,58.40
2023-03-15T02:08:01.415Z,58.40
2023-03-15T02:13:08.583Z,58.30
2023-03-15T02:18:13.998Z,58.30
2023-03-15T02:23:20.803Z,58.60
2023-03-15T02:28:25.621Z,58.60
2023-03-15T02:33:33.359Z,58.40
2023-03-15T02:38:38.001Z,58.40
2023-03-15T02:43:42.556Z,57.90
2023-03-15T02:48:48.427Z,57.10
2023-03-15T02:53:52.879Z,57.00
2023-03-15T02:58:58.041Z,56.70
2023-03-15T03:04:02.683Z,57.30
2023-03-15T03:09:07.163Z,57.40
2023-03-15T03:14:14.415Z,57.50
2023-03-15T03:19:18.976Z,57.10
2023-03-15T03:24:26.274Z,56.60
2023-03-15T03:29:31.745Z,56.60
2023-03-15T03:34:37.397Z,56.60
2023-03-15T03:39:42.043Z,56.60
2023-03-15T03:44:46.594Z,56.90
2023-03-15T03:49:50.940Z,57.00
2023-03-15T03:54:55.473Z,57.20
2023-03-15T03:59:59.601Z,57.10
2023-03-15T04:05:04.699Z,57.30
2023-03-15T04:10:09.622Z,57.10
2023-03-15T04:15:13.659Z,56.60
2023-03-15T04:20:20.959Z,56.40
2023-03-15T04:25:26.939Z,56.60
2023-03-15T04:30:52.050Z,56.20
2023-03-15T04:36:31.592Z,56.10
2023-03-15T04:42:09.991Z,56.00
2023-03-15T04:47:32.556Z,56.00
2023-03-15T04:53:00.240Z,56.00
2023-03-15T04:58:23.219Z,55.70
2023-03-15T05:03:36.341Z,55.60
2023-03-15T05:08:59.405Z,55.70
2023-03-15T05:14:22.270Z,55.90
2023-03-15T05:19:50.151Z,56.00
2023-03-15T05:25:17.098Z,55.90
2023-03-15T05:30:36.793Z,56.00
2023-03-15T05:35:55.962Z,55.90
2023-03-15T05:41:19.049Z,56.00
2023-03-15T05:46:43.954Z,56.30
2023-03-15T05:52:05.064Z,56.10
2023-03-15T05:57:25.274Z,55.70
2023-03-15T06:02:58.439Z,55.50
2023-03-15T06:08:12.017Z,55.30
2023-03-15T06:13:18.609Z,55.20
2023-03-15T06:18:23.209Z,55.40
2023-03-15T06:23:27.498Z,55.60
2023-03-15T06:28:31.833Z,55.40
2023-03-15T06:33:37.941Z,55.70
2023-03-15T06:38:43.809Z,55.30
2023-03-15T06:43:47.921Z,55.30
2023-03-15T06:48:52.683Z,55.20
2023-03-15T06:53:57.827Z,55.30
2023-03-15T06:59:02.071Z,55.50
2023-03-15T07:04:08.397Z,56.90
2023-03-15T07:09:12.478Z,56.30
2023-03-15T07:14:16.520Z,56.40
2023-03-15T07:19:20.677Z,56.70
2023-03-15T07:24:25.119Z,57.20
2023-03-15T07:29:29.630Z,57.10
2023-03-15T07:34:33.986Z,57.50
2023-03-15T07:39:38.003Z,57.10
2023-03-15T07:44:42.036Z,57.70
2023-03-15T07:49:45.961Z,57.00
2023-03-15T07:54:50.029Z,57.30
2023-03-15T07:59:54.240Z,57.50
2023-03-15T08:04:59.208Z,57.00
2023-03-15T08:10:05.956Z,57.20
2023-03-15T08:15:12.963Z,57.10
2023-03-15T08:20:18.492Z,57.10
2023-03-15T08:25:24.550Z,57.00
2023-03-15T08:30:28.788Z,57.20
2023-03-15T08:35:34.714Z,57.10
2023-03-15T08:40:39.991Z,57.00
2023-03-15T08:46:00.081Z,57.40
2023-03-15T08:51:09.387Z,57.30
2023-03-15T08:56:13.402Z,56.50
2023-03-15T09:01:17.526Z,56.60
2023-03-15T09:06:21.665Z,56.90
2023-03-15T09:11:25.601Z,57.20
2023-03-15T09:16:31.367Z,56.70
2023-03-15T09:21:35.457Z,56.50
2023-03-15T09:26:39.833Z,56.50
2023-03-15T09:31:43.794Z,56.50
2023-03-15T09:36:53.422Z,56.20
2023-03-15T09:41:59.185Z,56.50
2023-03-15T09:47:18.278Z,55.80
2023-03-15T09:52:39.007Z,55.90
2023-03-15T09:57:59.605Z,55.70
2023-03-15T10:03:07.442Z,55.50
2023-03-15T10:08:18.003Z,55.40
2023-03-15T10:13:46.901Z,55.80
2023-03-15T10:19:11.210Z,55.90
2023-03-15T10:24:28.638Z,55.90
2023-03-15T10:29:32.797Z,55.70
2023-03-15T10:34:36.922Z,55.60
2023-03-15T10:39:47.099Z,55.70
2023-03-15T10:44:50.915Z,55.90
2023-03-15T10:49:59.655Z,55.70
2023-03-15T10:55:17.101Z,55.60
2023-03-15T11:00:36.728Z,56.20
2023-03-15T11:05:47.446Z,55.90
2023-03-15T11:10:59.959Z,55.70
2023-03-15T11:16:16.249Z,55.70
2023-03-15T11:21:22.699Z,55.10
2023-03-15T11:26:32.488Z,54.60
2023-03-15T11:31:37.115Z,55.10
2023-03-15T11:36:46.299Z,55.60
2023-03-15T11:41:59.713Z,55.70
2023-03-15T11:47:12.037Z,55.70
2023-03-15T11:52:17.908Z,55.50
2023-03-15T11:57:46.217Z,55.30
2023-03-15T12:02:53.981Z,56.00
2023-03-15T12:08:00.899Z,56.10
2023-03-15T12:13:19.492Z,55.60
2023-03-15T12:18:31.695Z,55.60
2023-03-15T12:23:40.884Z,55.30
2023-03-15T12:29:12.502Z,55.40
2023-03-15T12:34:25.663Z,55.00
2023-03-15T12:39:42.740Z,55.00
2023-03-15T12:44:46.501Z,55.00
2023-03-15T12:49:50.826Z,55.10
2023-03-15T12:54:57.609Z,55.30
2023-03-15T13:00:07.997Z,55.50
2023-03-15T13:05:57.915Z,55.70
2023-03-15T13:11:44.925Z,55.30
2023-03-15T13:17:02.554Z,55.30
2023-03-15T13:22:18.841Z,55.50
2023-03-15T13:27:38.678Z,55.40
2023-03-15T13:32:42.901Z,55.50
2023-03-15T13:37:46.695Z,55.40
2023-03-15T13:42:50.944Z,55.40
2023-03-15T13:47:54.969Z,55.50
2023-03-15T13:52:58.901Z,55.20
2023-03-15T13:58:08.479Z,54.80
2023-03-15T14:03:22.007Z,54.20
2023-03-15T14:08:33.820Z,53.90
2023-03-15T14:13:48.399Z,54.10
2023-03-15T14:18:53.264Z,53.20
2023-03-15T14:23:57.298Z,52.80
2023-03-15T14:29:26.286Z,52.40
2023-03-15T14:34:38.438Z,52.80
2023-03-15T14:39:43.466Z,53.40
2023-03-15T14:44:47.912Z,52.90
2023-03-15T14:49:52.030Z,53.20
2023-03-15T14:54:57.088Z,53.60
2023-03-15T15:00:01.884Z,54.00
2023-03-15T15:05:23.882Z,54.30
2023-03-15T15:10:28.598Z,54.10
2023-03-15T15:15:43.745Z,53.60
2023-03-15T15:20:55.252Z,53.50
2023-03-15T15:26:05.680Z,53.30
2023-03-15T15:31:15.425Z,53.40
2023-03-15T15:36:25.279Z,53.60
2023-03-15T15:41:31.876Z,53.40
2023-03-15T15:46:36.256Z,53.10
2023-03-15T15:51:45.894Z,53.20
2023-03-15T15:56:56.876Z,52.70
2023-03-15T16:02:02.458Z,52.70
2023-03-15T16:07:10.183Z,53.10
2023-03-15T16:12:19.131Z,53.00
2023-03-15T16:17:26.662Z,53.20
2023-03-15T16:22:33.104Z,53.50
2023-03-15T16:27:38.979Z,53.70
2023-03-15T16:32:47.421Z,54.30
2023-03-15T16:37:57.499Z,54.90
2023-03-15T16:43:06.979Z,54.20
2023-03-15T16:48:15.269Z,54.00
2023-03-15T16:53:20.724Z,53.90
2023-03-15T16:58:28.626Z,53.90
2023-03-15T17:03:36.520Z,54.10
2023-03-15T17:08:41.089Z,54.10
2023-03-15T17:13:48.916Z,55.10
2023-03-15T17:18:55.507Z,54.80
2023-03-15T17:24:02.648Z,55.80
2023-03-15T17:29:10.395Z,55.80
2023-03-15T17:34:16.832Z,55.40
2023-03-15T17:39:23.364Z,55.70
2023-03-15T17:44:30.579Z,56.00
2023-03-15T17:49:37.369Z,55.40
2023-03-15T17:54:44.757Z,55.30
2023-03-15T17:59:51.366Z,55.30
2023-03-15T18:05:00.471Z,56.00
2023-03-15T18:10:08.009Z,56.00
2023-03-15T18:15:18.675Z,56.20
2023-03-15T18:20:28.878Z,55.60
2023-03-15T18:25:38.900Z,55.50
2023-03-15T18:30:45.912Z,56.00
2023-03-15T18:35:54.965Z,55.50
2023-03-15T18:41:04.681Z,55.30
2023-03-15T18:46:12.375Z,56.10
2023-03-15T18:51:22.952Z,55.50
2023-03-15T18:56:35.429Z,55.40
2023-03-15T19:01:42.674Z,55.40
2023-03-15T19:06:50.205Z,55.40
2023-03-15T19:11:56.768Z,55.40
2023-03-15T19:17:05.501Z,55.40
2023-03-15T19:22:12.137Z,54.50
2023-03-15T19:27:20.037Z,55.50
2023-03-15T19:32:30.136Z,55.30
2023-03-15T19:37:37.423Z,56.00
2023-03-15T19:42:49.813Z,56.00
2023-03-15T19:47:58.188Z,56.10
2023-03-15T19:53:06.253Z,55.60
2023-03-15T19:58:14.712Z,55.30
2023-03-15T20:03:23.098Z,55.00
2023-03-15T20:08:30.667Z,54.40
2023-03-15T20:13:39.279Z,54.40
2023-03-15T20:18:46.499Z,54.40
2023-03-15T20:23:53.283Z,54.80
2023-03-15T20:29:02.064Z,55.30
2023-03-15T20:34:17.599Z,55.80
2023-03-15T20:39:26.660Z,55.70
2023-03-15T20:44:34.943Z,55.70
2023-03-15T20:49:41.928Z,55.70
2023-03-15T20:54:48.021Z,55.60
2023-03-15T20:59:55.224Z,55.80
2023-03-15T21:05:02.545Z,55.60
2023-03-15T21:10:13.075Z,55.90
2023-03-15T21:15:19.982Z,55.70
2023-03-15T21:20:25.962Z,56.40
2023-03-15T21:25:31.192Z,56.30
2023-03-15T21:30:36.391Z,54.90
2023-03-15T21:35:42.444Z,54.10
2023-03-15T21:41:00.856Z,53.30
2023-03-15T21:46:10.240Z,53.20
2023-03-15T21:51:20.159Z,53.30
2023-03-15T21:56:26.528Z,52.80
2023-03-15T22:01:30.996Z,52.00
2023-03-15T22:06:35.113Z,52.10
2023-03-15T22:11:39.039Z,52.00
2023-03-15T22:16:43.239Z,54.10
2023-03-15T22:21:47.626Z,54.00
2023-03-15T22:26:53.380Z,54.00
2023-03-15T22:31:57.521Z,54.30
2023-03-15T22:37:05.148Z,54.20
2023-03-15T22:42:09.585Z,54.20
2023-03-15T22:47:13.609Z,54.40
2023-03-15T22:52:17.772Z,55.00
2023-03-15T22:57:22.707Z,54.60
2023-03-15T23:02:26.842Z,55.00
2023-03-15T23:07:30.890Z,55.40
2023-03-15T23:12:36.485Z,55.70
2023-03-15T23:17:46.909Z,55.70
2023-03-15T23:22:51.492Z,56.10
2023-03-15T23:27:56.233Z,56.50
2023-03-15T23:33:00.588Z,56.50
2023-03-15T23:38:04.507Z,56.90
2023-03-15T23:43:09.747Z,57.10
2023-03-15T23:48:13.677Z,57.40
2023-03-15T23:53:17.626Z,57.60
2023-03-15T23:58:22.466Z,57.60
